Time;durP1;ratioP1;P1;durP2;ratioP2;P2;SDS_P1;SDS_P2;PMS_P1;PMS_P2;Temp;Humidity;BMP_temperature;BMP_pressure;BME280_temperature;BME280_humidity;BME280_pressure;Samples;Min_cycle;Max_cycle;Signal;HPM_P1;HPM_P2
2022/05/25 00:00:16;;;;;;;9.13;6.55;;;;;;;10.48;72.00;100469.31;1765271;80;20943;-69
2022/05/25 00:02:43;;;;;;;7.92;5.87;;;;;;;10.47;72.05;100479.73;1765830;80;21042;-69
2022/05/25 00:05:10;;;;;;;10.05;6.58;;;;;;;10.43;72.07;100478.11;1766901;80;20944;-69
2022/05/25 00:07:37;;;;;;;8.03;5.85;;;;;;;10.41;72.11;100474.88;1761315;81;21767;-69
2022/05/25 00:10:06;;;;;;;7.80;5.70;;;;;;;10.41;72.14;100484.77;1762044;80;21070;-68
2022/05/25 00:12:33;;;;;;;8.38;6.42;;;;;;;10.38;72.17;100480.73;1761043;80;22123;-68
2022/05/25 00:15:00;;;;;;;7.42;5.85;;;;;;;10.34;72.25;100487.66;1765612;80;21011;-69
2022/05/25 00:17:27;;;;;;;7.83;5.72;;;;;;;10.32;72.31;100488.44;1755482;80;21002;-69
2022/05/25 00:19:59;;;;;;;8.58;5.72;;;;;;;10.30;72.37;100491.91;1765795;80;21089;-68
2022/05/25 00:22:42;;;;;;;8.43;5.70;;;;;;;10.27;72.43;100487.87;1766408;80;21533;-68
2022/05/25 00:25:20;;;;;;;8.80;5.60;;;;;;;10.26;72.54;100484.11;1766191;80;21505;-68
2022/05/25 00:27:53;;;;;;;7.85;5.78;;;;;;;10.22;72.60;100491.00;1752900;80;21552;-68
2022/05/25 00:30:20;;;;;;;9.70;6.15;;;;;;;10.16;72.68;100482.68;1761874;80;20947;-68
2022/05/25 00:32:47;;;;;;;8.48;6.03;;;;;;;10.13;72.77;100492.00;1748848;80;21200;-68
2022/05/25 00:35:18;;;;;;;8.73;5.67;;;;;;;10.12;72.84;100492.27;1762669;80;21121;-68
2022/05/25 00:37:45;;;;;;;7.75;5.70;;;;;;;10.10;72.88;100494.67;1747556;81;21564;-68
2022/05/25 00:40:18;;;;;;;7.72;5.65;;;;;;;10.08;73.01;100486.64;1763955;80;21042;-68
2022/05/25 00:42:45;;;;;;;6.78;4.95;;;;;;;10.06;73.11;100488.20;1764366;80;21034;-68
2022/05/25 00:45:13;;;;;;;8.08;5.85;;;;;;;10.05;73.18;100491.14;1764642;80;21680;-68
2022/05/25 00:47:43;;;;;;;7.47;5.58;;;;;;;10.02;73.27;100487.11;1759614;80;21576;-68
2022/05/25 00:50:13;;;;;;;7.83;5.85;;;;;;;9.99;73.37;100491.63;1765389;80;21109;-69
2022/05/25 00:52:42;;;;;;;7.95;5.92;;;;;;;9.99;73.43;100495.63;1753494;80;21104;-69
2022/05/25 00:55:10;;;;;;;8.65;5.58;;;;;;;9.98;73.51;100498.03;1715030;82;21023;-69
2022/05/25 00:57:45;;;;;;;7.72;6.10;;;;;;;9.96;73.59;100497.47;1714769;82;21380;-68
2022/05/25 01:00:22;;;;;;;7.90;5.47;;;;;;;9.96;73.66;100498.00;1700935;82;21035;-69
2022/05/25 01:03:09;;;;;;;7.85;5.37;;;;;;;9.93;73.74;100494.50;1715948;82;21059;-69
2022/05/25 01:06:00;;;;;;;7.42;5.15;;;;;;;9.91;73.84;100505.98;1696763;83;21016;-67
2022/05/25 01:09:02;;;;;;;6.92;5.20;;;;;;;9.88;73.94;100500.61;1696236;82;21702;-67
2022/05/25 01:11:44;;;;;;;8.58;5.30;;;;;;;9.87;74.06;100502.98;1709497;82;21346;-67
2022/05/25 01:14:25;;;;;;;7.95;5.17;;;;;;;9.85;74.10;100499.78;1714494;82;20984;-67
2022/05/25 01:17:01;;;;;;;6.97;5.40;;;;;;;9.82;74.18;100505.63;1702708;82;21554;-69
2022/05/25 01:19:45;;;;;;;6.42;5.15;;;;;;;9.83;74.25;100509.89;1730699;81;21006;-69
2022/05/25 01:22:46;;;;;;;7.12;5.08;;;;;;;9.85;74.30;100509.12;1764382;80;20978;-69
2022/05/25 01:25:21;;;;;;;7.28;5.20;;;;;;;9.85;74.36;100511.25;1728210;82;22218;-67
2022/05/25 01:27:49;;;;;;;7.65;5.60;;;;;;;9.86;74.49;100509.39;1733458;82;21512;-67
2022/05/25 01:30:21;;;;;;;6.90;5.60;;;;;;;9.88;74.56;100513.16;1738185;82;20985;-68
2022/05/25 01:33:15;;;;;;;7.17;5.50;;;;;;;9.91;74.63;100514.78;1729612;82;21001;-68
2022/05/25 01:36:02;;;;;;;8.03;5.75;;;;;;;9.94;74.68;100514.81;1720659;82;20978;-68
2022/05/25 01:38:41;;;;;;;8.20;6.10;;;;;;;9.97;74.73;100519.61;1718272;82;21225;-68
2022/05/25 01:41:46;;;;;;;9.13;6.35;;;;;;;10.01;74.78;100526.88;1741308;79;21073;-68
2022/05/25 01:44:25;;;;;;;9.33;6.42;;;;;;;10.01;74.79;100520.20;1763902;80;20994;-68
2022/05/25 01:47:09;;;;;;;11.03;6.53;;;;;;;10.02;74.84;100525.81;1763188;80;21034;-68
2022/05/25 01:49:55;;;;;;;8.45;5.70;;;;;;;10.04;74.83;100533.58;1760583;80;21057;-68
2022/05/25 01:52:31;;;;;;;8.43;6.30;;;;;;;10.03;74.92;100527.41;1761491;80;21551;-68
2022/05/25 01:55:02;;;;;;;8.20;6.22;;;;;;;9.99;75.01;100524.98;1761987;80;21052;-67
2022/05/25 01:57:32;;;;;;;9.23;6.90;;;;;;;9.97;75.14;100528.95;1760702;80;21085;-68
2022/05/25 01:59:59;;;;;;;8.78;6.42;;;;;;;9.95;75.21;100537.76;1761486;80;20994;-68
2022/05/25 02:05:14;;;;;;;8.75;6.20;;;;;;;9.92;75.25;100529.72;1760132;81;21136;-68
2022/05/25 02:08:12;;;;;;;7.50;5.45;;;;;;;9.88;75.24;100535.30;1749507;80;20935;-68
2022/05/25 02:11:13;;;;;;;7.12;5.47;;;;;;;9.88;75.20;100533.96;1760562;81;21058;-68
2022/05/25 02:14:20;;;;;;;8.63;6.00;;;;;;;9.76;75.23;100539.97;1761839;80;20983;-68
2022/05/25 02:17:14;;;;;;;7.78;6.10;;;;;;;9.61;75.45;100541.44;1749025;80;21070;-68
2022/05/25 02:19:59;;;;;;;8.00;6.22;;;;;;;9.59;75.64;100540.06;1749962;80;22244;-68
2022/05/25 02:22:37;;;;;;;8.83;5.70;;;;;;;9.60;75.70;100537.13;1764015;80;21022;-68
2022/05/25 02:25:15;;;;;;;8.03;6.22;;;;;;;9.61;75.67;100546.77;1766314;80;21144;-69
2022/05/25 02:28:02;;;;;;;9.40;6.40;;;;;;;9.61;75.64;100543.30;1764034;80;21268;-67
2022/05/25 02:30:33;;;;;;;9.18;6.58;;;;;;;9.63;75.62;100546.50;1762599;80;21050;-67
2022/05/25 02:33:16;;;;;;;9.30;6.50;;;;;;;9.64;75.58;100542.80;1760106;80;21039;-68
2022/05/25 02:35:45;;;;;;;9.93;6.58;;;;;;;9.66;75.57;100547.88;1762155;80;21042;-68
2022/05/25 02:38:12;;;;;;;7.30;6.00;;;;;;;9.69;75.54;100551.38;1764009;80;21589;-68
2022/05/25 02:40:40;;;;;;;8.68;6.80;;;;;;;9.71;75.53;100555.41;1761975;80;20963;-68
2022/05/25 02:43:08;;;;;;;8.60;6.47;;;;;;;9.76;75.56;100558.64;1762172;80;21046;-68
2022/05/25 02:45:35;;;;;;;8.30;7.03;;;;;;;9.79;75.57;100558.94;1762650;80;21227;-68
2022/05/25 02:48:04;;;;;;;9.40;6.65;;;;;;;9.85;75.59;100557.14;1764095;80;21046;-68
2022/05/25 02:50:31;;;;;;;7.62;6.25;;;;;;;9.91;75.61;100560.14;1761304;80;21028;-68
2022/05/25 02:52:59;;;;;;;9.48;6.85;;;;;;;9.97;75.67;100560.47;1765019;80;21042;-67
2022/05/25 02:55:27;;;;;;;9.73;7.20;;;;;;;10.03;75.63;100563.97;1761160;80;21053;-68
2022/05/25 02:57:58;;;;;;;8.90;6.90;;;;;;;10.11;75.68;100567.53;1748145;80;21079;-68
2022/05/25 03:00:24;;;;;;;8.93;7.00;;;;;;;10.18;75.73;100560.11;1761871;80;21102;-68
2022/05/25 03:02:51;;;;;;;9.40;6.92;;;;;;;10.26;75.72;100560.20;1756949;80;21026;-68
2022/05/25 03:05:19;;;;;;;9.35;7.28;;;;;;;10.35;75.69;100568.02;1758332;80;21144;-68
2022/05/25 03:07:45;;;;;;;8.25;7.30;;;;;;;10.42;75.68;100561.93;1750675;80;21026;-69
2022/05/25 03:10:12;;;;;;;9.00;7.30;;;;;;;10.51;75.68;100568.41;1765067;80;21419;-69
2022/05/25 03:12:39;;;;;;;10.00;7.55;;;;;;;10.60;75.69;100567.41;1762743;80;20948;-68
2022/05/25 03:15:07;;;;;;;9.05;7.03;;;;;;;10.69;75.70;100567.72;1749714;80;21122;-68
2022/05/25 03:17:34;;;;;;;8.88;7.30;;;;;;;10.78;75.66;100561.64;1749588;80;20988;-69
2022/05/25 03:20:01;;;;;;;9.05;6.95;;;;;;;10.89;75.64;100563.87;1755803;80;20979;-68
2022/05/25 03:22:29;;;;;;;10.75;7.05;;;;;;;10.98;75.57;100560.95;1750305;80;21254;-69
2022/05/25 03:24:56;;;;;;;9.25;7.08;;;;;;;11.12;75.52;100556.47;1750008;80;21030;-68
2022/05/25 03:27:23;;;;;;;10.05;6.80;;;;;;;11.23;75.43;100559.48;1747802;80;21055;-69
2022/05/25 03:29:50;;;;;;;7.60;6.72;;;;;;;11.35;75.37;100559.25;1758385;80;20992;-69
2022/05/25 03:32:17;;;;;;;9.30;7.12;;;;;;;11.48;75.28;100562.77;1759149;80;21557;-68
2022/05/25 03:34:49;;;;;;;8.23;6.70;;;;;;;11.61;75.16;100562.81;1747471;80;21205;-68
2022/05/25 03:37:16;;;;;;;8.20;6.43;;;;;;;11.74;75.01;100560.97;1745703;80;20948;-68
2022/05/25 03:39:44;;;;;;;8.15;6.47;;;;;;;11.88;74.73;100563.46;1750364;80;21023;-68
2022/05/25 03:42:11;;;;;;;7.85;6.17;;;;;;;12.02;74.51;100560.27;1763736;80;21116;-68
2022/05/25 03:44:38;;;;;;;7.72;5.85;;;;;;;12.17;74.15;100567.78;1765718;80;21016;-68
2022/05/25 03:47:06;;;;;;;6.37;5.50;;;;;;;12.30;73.63;100565.08;1748054;80;21163;-68
2022/05/25 03:49:34;;;;;;;7.45;5.90;;;;;;;12.46;72.95;100559.19;1763417;80;21083;-69
2022/05/25 03:52:01;;;;;;;8.18;5.65;;;;;;;12.58;72.00;100560.26;1749288;80;21098;-70
2022/05/25 03:54:28;;;;;;;7.75;5.58;;;;;;;12.72;71.19;100565.32;1760634;80;21051;-67
2022/05/25 03:56:54;;;;;;;8.73;5.90;;;;;;;12.85;70.57;100563.41;1759606;80;21035;-67
2022/05/25 03:59:21;;;;;;;8.48;5.78;;;;;;;12.99;70.00;100562.30;1757348;80;21266;-68
2022/05/25 04:01:49;;;;;;;7.67;5.60;;;;;;;13.12;69.50;100560.38;1760510;80;21051;-68
2022/05/25 04:04:15;;;;;;;7.47;5.12;;;;;;;13.27;68.59;100561.45;1762329;80;21022;-69
2022/05/25 04:07:01;;;;;;;6.28;4.28;;;;;;;13.42;67.59;100564.59;1749502;80;21018;-68
2022/05/25 04:09:46;;;;;;;7.03;5.10;;;;;;;13.54;65.66;100570.45;1750447;80;21024;-68
2022/05/25 04:12:13;;;;;;;7.30;4.70;;;;;;;13.70;64.81;100571.97;1756124;80;21726;-68
2022/05/25 04:14:40;;;;;;;6.60;4.62;;;;;;;13.85;63.87;100573.75;1750833;80;21077;-67
2022/05/25 04:17:07;;;;;;;5.05;3.70;;;;;;;13.98;62.65;100576.35;1749278;80;20980;-68
2022/05/25 04:19:38;;;;;;;6.10;4.50;;;;;;;14.13;61.60;100572.23;1749248;80;20948;-68
2022/05/25 04:22:04;;;;;;;6.25;4.12;;;;;;;14.25;60.10;100577.25;1751207;80;21561;-68
2022/05/25 04:24:32;;;;;;;7.95;4.33;;;;;;;14.39;59.15;100578.20;1748477;80;22140;-68
2022/05/25 04:27:00;;;;;;;6.50;4.20;;;;;;;14.55;58.12;100588.31;1750658;80;21499;-69
2022/05/25 04:29:27;;;;;;;5.80;4.07;;;;;;;14.67;57.19;100592.76;1752335;80;21519;-69
2022/05/25 04:31:53;;;;;;;5.77;4.27;;;;;;;14.83;56.89;100589.93;1753687;80;21391;-68
2022/05/25 04:34:22;;;;;;;5.93;4.13;;;;;;;14.96;54.60;100591.95;1750603;80;21290;-68
2022/05/25 04:36:49;;;;;;;6.67;4.40;;;;;;;15.12;53.07;100596.08;1749638;80;21216;-69
2022/05/25 04:39:16;;;;;;;6.07;3.93;;;;;;;15.22;51.86;100598.65;1748010;80;21769;-69
2022/05/25 04:41:44;;;;;;;6.27;3.87;;;;;;;15.38;52.03;100594.44;1750223;80;21252;-70
2022/05/25 04:44:12;;;;;;;4.77;3.53;;;;;;;15.51;51.04;100594.28;1748424;80;21283;-71
2022/05/25 04:46:40;;;;;;;6.50;3.80;;;;;;;15.68;50.42;100595.97;1762871;80;21339;-70
2022/05/25 04:49:07;;;;;;;5.77;4.17;;;;;;;15.82;49.90;100587.41;1750401;80;21342;-70
2022/05/25 04:51:34;;;;;;;5.93;3.87;;;;;;;15.98;49.65;100586.65;1749852;80;21264;-70
2022/05/25 04:54:01;;;;;;;6.30;3.90;;;;;;;16.13;49.01;100593.17;1760176;80;21231;-69
2022/05/25 04:59:16;;;;;;;5.73;3.57;;;;;;;16.41;48.16;100592.70;1750698;80;21336;-70
2022/05/25 05:01:43;;;;;;;6.30;3.30;;;;;;;16.57;47.03;100597.30;1752949;80;22567;-69
2022/05/25 05:04:10;;;;;;;6.70;3.17;;;;;;;16.69;46.13;100593.34;1753933;80;21210;-68
2022/05/25 05:06:38;;;;;;;5.83;3.33;;;;;;;16.82;45.95;100592.60;1747753;80;21333;-68
2022/05/25 05:09:06;;;;;;;5.27;3.20;;;;;;;16.93;44.36;100595.34;1749015;80;21244;-68
2022/05/25 05:11:36;;;;;;;5.40;3.43;;;;;;;17.01;44.52;100589.28;1749402;80;21286;-69
2022/05/25 05:14:04;;;;;;;5.07;3.20;;;;;;;17.14;45.05;100590.36;1748495;80;21700;-70
2022/05/25 05:16:32;;;;;;;4.93;3.47;;;;;;;17.30;44.40;100588.16;1749413;80;21439;-69
2022/05/25 05:19:01;;;;;;;4.80;3.43;;;;;;;17.46;44.34;100588.09;1687177;84;21479;-69
2022/05/25 05:21:32;;;;;;;6.00;3.52;;;;;;;17.62;43.67;100588.57;1683714;83;21497;-68
2022/05/25 05:23:59;;;;;;;5.53;3.40;;;;;;;17.77;43.06;100590.19;1696990;83;21039;-69
2022/05/25 05:26:26;;;;;;;4.93;3.20;;;;;;;17.93;42.67;100590.09;1696919;83;21816;-69
2022/05/25 05:28:55;;;;;;;4.97;2.90;;;;;;;18.27;41.54;100592.80;1694422;83;21588;-69
2022/05/25 05:31:21;;;;;;;5.57;3.00;;;;;;;18.40;40.42;100592.50;1697235;83;21555;-69
2022/05/25 05:33:50;;;;;;;5.10;2.60;;;;;;;18.40;40.42;100592.50;1710073;83;21657;-69
2022/05/25 05:36:23;;;;;;;6.77;2.80;;;;;;;18.56;39.51;100587.48;1705493;83;22156;-71
2022/05/25 05:38:57;;;;;;;4.93;2.63;;;;;;;18.68;39.51;100595.27;1699271;83;21705;-70
2022/05/25 05:41:26;;;;;;;5.67;2.50;;;;;;;18.84;38.99;100595.70;1696607;83;23147;-69
2022/05/25 05:43:53;;;;;;;5.27;2.70;;;;;;;19.07;37.21;100599.70;1694835;83;21743;-70
2022/05/25 05:46:20;;;;;;;4.93;3.00;;;;;;;19.07;37.21;100599.70;1697203;83;21102;-70
2022/05/25 05:48:47;;;;;;;4.90;2.77;;;;;;;19.15;37.23;100606.52;1696516;83;21684;-70
2022/05/25 05:51:16;;;;;;;5.87;3.00;;;;;;;19.33;35.87;100603.86;1763052;80;22135;-69
2022/05/25 05:53:44;;;;;;;4.63;2.80;;;;;;;19.42;35.34;100593.84;1758292;80;20932;-70
2022/05/25 05:56:11;;;;;;;4.93;3.07;;;;;;;19.42;35.34;100593.84;1749282;80;21000;-70
2022/05/25 05:58:38;;;;;;;4.27;2.83;;;;;;;19.52;35.71;100601.68;1756069;80;21015;-70
2022/05/25 06:01:05;;;;;;;4.57;2.83;;;;;;;19.64;35.31;100598.36;1768491;80;21074;-70
2022/05/25 06:03:32;;;;;;;5.43;3.10;;;;;;;19.74;35.56;100598.05;1748040;80;21877;-69
2022/05/25 06:06:00;;;;;;;3.77;2.37;;;;;;;19.89;35.35;100593.53;1751585;80;21003;-69
2022/05/25 06:08:30;;;;;;;3.73;2.30;;;;;;;20.05;34.79;100599.28;1750387;80;21791;-68
2022/05/25 06:10:58;;;;;;;7.73;2.20;;;;;;;20.19;33.93;100596.95;1749569;80;21090;-69
2022/05/25 06:13:26;;;;;;;3.77;2.30;;;;;;;20.30;34.16;100592.25;1751072;80;21027;-69
2022/05/25 06:21:25;;;;;;;4.07;2.37;;;;;;;20.68;33.08;100595.63;1747833;80;21043;-69
2022/05/25 06:23:52;;;;;;;4.50;2.63;;;;;;;20.74;31.98;100598.96;1755578;80;21538;-69
2022/05/25 06:26:19;;;;;;;7.30;2.83;;;;;;;20.80;32.57;100592.24;1753421;80;21087;-69
2022/05/25 06:28:46;;;;;;;6.00;2.40;;;;;;;20.93;32.83;100595.30;1763419;80;21219;-69
2022/05/25 06:31:13;;;;;;;3.97;2.37;;;;;;;21.03;32.13;100603.09;1750579;80;20992;-70
2022/05/25 06:33:41;;;;;;;4.63;2.20;;;;;;;21.09;31.87;100600.97;1749058;80;21479;-70
2022/05/25 06:36:24;;;;;;;4.10;2.70;;;;;;;21.18;32.52;100596.30;1764324;80;20960;-70
2022/05/25 06:38:51;;;;;;;3.63;2.20;;;;;;;21.34;32.62;100595.17;1750267;80;21019;-70
2022/05/25 06:41:17;;;;;;;4.37;2.27;;;;;;;21.51;32.12;100595.66;1749465;80;21100;-69
2022/05/25 06:43:44;;;;;;;4.97;2.53;;;;;;;21.66;31.81;100597.81;1751788;80;21042;-69
2022/05/25 06:46:15;;;;;;;4.00;2.27;;;;;;;21.80;31.12;100598.91;1753634;80;21519;-70
2022/05/25 06:48:42;;;;;;;4.40;2.40;;;;;;;21.91;30.52;100601.45;1748014;80;21551;-69
2022/05/25 06:51:19;;;;;;;6.50;2.57;;;;;;;21.96;30.32;100598.54;1748441;80;21165;-70
2022/05/25 06:53:47;;;;;;;4.57;2.30;;;;;;;22.05;30.31;100603.92;1749429;80;21146;-72
2022/05/25 06:56:16;;;;;;;4.80;2.07;;;;;;;22.13;29.87;100607.68;1748533;80;21098;-73
2022/05/25 06:58:43;;;;;;;2.77;1.80;;;;;;;22.17;29.36;100607.27;1763587;80;21015;-70
2022/05/25 07:01:10;;;;;;;4.10;2.10;;;;;;;22.20;29.66;100607.96;1753409;80;21083;-71
2022/05/25 07:03:38;;;;;;;4.87;1.93;;;;;;;22.29;29.84;100605.17;1748633;80;21451;-70
2022/05/25 07:06:07;;;;;;;6.17;2.50;;;;;;;22.33;28.45;100610.17;1750152;80;21123;-72
2022/05/25 07:08:35;;;;;;;3.30;2.20;;;;;;;22.37;28.75;100609.72;1750876;80;21071;-70
2022/05/25 07:11:02;;;;;;;5.10;2.33;;;;;;;22.48;28.81;100606.25;1748484;80;21043;-68
2022/05/25 07:13:31;;;;;;;4.13;2.47;;;;;;;22.57;28.72;100607.51;1750452;80;20980;-70
2022/05/25 07:16:06;;;;;;;3.93;2.07;;;;;;;22.70;28.26;100608.34;1751678;80;21066;-71
2022/05/25 07:18:34;;;;;;;5.33;2.27;;;;;;;22.82;27.89;100608.36;1774391;80;21183;-69
2022/05/25 07:21:07;;;;;;;3.73;2.37;;;;;;;22.94;27.65;100613.08;1749855;80;21086;-70
2022/05/25 07:23:53;;;;;;;3.50;2.00;;;;;;;23.05;27.68;100610.13;1748132;80;21557;-71
2022/05/25 07:26:21;;;;;;;5.40;2.10;;;;;;;23.25;27.53;100600.81;1749403;80;21083;-71
2022/05/25 07:28:51;;;;;;;4.10;1.90;;;;;;;23.47;26.75;100601.71;1747294;80;21167;-70
2022/05/25 07:31:50;;;;;;;2.87;1.70;;;;;;;23.61;25.85;100603.49;1748647;80;21720;-69
2022/05/25 07:34:25;;;;;;;3.43;2.00;;;;;;;23.72;26.04;100601.11;1750154;80;21043;-69
2022/05/25 07:37:02;;;;;;;3.30;1.90;;;;;;;23.81;25.87;100604.50;1749553;80;21046;-71
2022/05/25 07:39:37;;;;;;;5.60;2.20;;;;;;;23.85;25.93;100592.33;1762201;80;21031;-70
2022/05/25 07:42:06;;;;;;;4.47;1.87;;;;;;;23.87;26.23;100599.61;1749295;80;21625;-70
2022/05/25 07:44:37;;;;;;;4.20;2.20;;;;;;;23.95;26.33;100591.83;1750743;80;21152;-71
2022/05/25 07:47:04;;;;;;;4.33;2.00;;;;;;;24.06;25.67;100597.05;1747136;80;21126;-68
2022/05/25 07:49:33;;;;;;;5.43;2.20;;;;;;;24.04;24.90;100597.16;1764287;80;21070;-70
2022/05/25 07:52:01;;;;;;;3.50;2.03;;;;;;;23.95;25.43;100594.56;1752763;80;21019;-69
2022/05/25 07:57:32;;;;;;;3.77;1.80;;;;;;;23.95;24.74;100592.41;1749051;80;21550;-70
2022/05/25 08:06:26;;;;;;;3.60;1.70;;;;;;;23.90;23.68;100590.73;1756710;80;21005;-71
2022/05/25 08:09:11;;;;;;;2.80;1.80;;;;;;;23.87;24.61;100599.61;1764742;80;21003;-70
2022/05/25 08:11:57;;;;;;;3.03;1.80;;;;;;;23.83;23.91;100599.50;1754328;80;21218;-71
2022/05/25 08:14:25;;;;;;;3.00;1.70;;;;;;;23.91;24.30;100601.07;1749065;80;21074;-70
2022/05/25 08:16:53;;;;;;;4.37;2.00;;;;;;;24.06;23.77;100598.41;1761137;80;21114;-70
2022/05/25 08:19:20;;;;;;;4.87;2.00;;;;;;;24.17;23.63;100593.23;1750246;80;21517;-72
2022/05/25 08:21:48;;;;;;;2.93;1.60;;;;;;;24.33;23.95;100600.89;1750960;80;22473;-70
2022/05/25 08:24:15;;;;;;;3.87;1.67;;;;;;;24.52;23.14;100603.57;1747474;80;21393;-69
2022/05/25 08:26:43;;;;;;;3.97;1.90;;;;;;;24.61;23.09;100588.37;1749992;80;21505;-71
2022/05/25 08:29:28;;;;;;;3.50;1.80;;;;;;;24.71;22.95;100599.59;1748448;80;21471;-70
2022/05/25 08:31:58;;;;;;;3.20;1.93;;;;;;;24.76;23.06;100600.67;1747737;80;21089;-73
2022/05/25 08:34:43;;;;;;;2.47;1.83;;;;;;;24.84;22.86;100594.80;1750166;80;21054;-70
2022/05/25 08:37:11;;;;;;;2.60;1.77;;;;;;;25.00;23.30;100584.66;1750652;80;21106;-71
2022/05/25 08:42:45;;;;;;;3.23;1.77;;;;;;;25.33;22.50;100587.61;1747835;80;21118;-71
2022/05/25 08:45:12;;;;;;;3.27;1.67;;;;;;;25.26;22.75;100586.08;1753041;80;21589;-71
2022/05/25 08:47:50;;;;;;;3.77;2.00;;;;;;;25.26;22.48;100591.55;1751322;80;21633;-70
2022/05/25 08:50:17;;;;;;;5.13;1.90;;;;;;;25.20;22.18;100599.22;1748396;80;21434;-71
2022/05/25 08:53:21;;;;;;;3.87;1.93;;;;;;;25.14;22.08;100591.64;1747344;80;21483;-69
2022/05/25 08:56:20;;;;;;;3.60;1.80;;;;;;;25.06;22.36;100592.03;1761173;80;21514;-70
2022/05/25 09:03:03;;;;;;;4.17;1.80;;;;;;;25.07;22.49;100581.89;1749182;80;21051;-70
2022/05/25 09:05:55;;;;;;;4.10;2.10;;;;;;;25.18;22.67;100587.08;1735493;80;21152;-69
2022/05/25 09:09:21;;;;;;;3.43;2.00;;;;;;;25.30;21.93;100579.33;1750988;80;21039;-70
2022/05/25 09:11:53;;;;;;;3.03;2.10;;;;;;;25.30;21.92;100578.75;1719089;80;21007;-69
2022/05/25 09:21:10;;;;;;;2.97;1.73;;;;;;;25.42;22.91;100577.27;1763268;80;21249;-70
2022/05/25 09:23:36;;;;;;;2.80;1.97;;;;;;;25.45;22.76;100583.39;1750983;80;20984;-70
2022/05/25 09:26:03;;;;;;;3.10;1.80;;;;;;;25.39;23.03;100573.88;1750100;80;21003;-71
2022/05/25 09:28:34;;;;;;;3.37;1.80;;;;;;;25.47;22.86;100580.32;1748584;80;21003;-68
2022/05/25 09:31:03;;;;;;;3.03;1.80;;;;;;;25.63;22.89;100580.24;1722914;80;21105;-69
2022/05/25 09:33:41;;;;;;;2.83;1.70;;;;;;;25.78;22.46;100572.56;1748629;80;21234;-70
2022/05/25 09:36:15;;;;;;;2.73;1.80;;;;;;;25.92;22.32;100571.50;1759039;80;21507;-70
2022/05/25 09:39:05;;;;;;;3.50;2.00;;;;;;;26.11;22.59;100561.12;1746576;80;20991;-69
2022/05/25 09:41:33;;;;;;;4.53;1.90;;;;;;;26.20;22.42;100549.95;1749535;80;21305;-69
2022/05/25 09:44:03;;;;;;;3.03;1.80;;;;;;;26.36;22.34;100555.33;1747789;80;21090;-69
2022/05/25 09:46:34;;;;;;;2.60;1.70;;;;;;;26.56;21.56;100556.10;1766209;80;21048;-69
2022/05/25 09:49:12;;;;;;;2.40;1.70;;;;;;;26.80;21.50;100560.41;1764459;80;21498;-70
2022/05/25 09:51:45;;;;;;;5.77;1.90;;;;;;;26.98;21.32;100551.08;1749475;80;20964;-69
2022/05/25 09:54:37;;;;;;;3.63;1.90;;;;;;;27.03;20.21;100549.41;1723128;82;21090;-70
2022/05/25 09:57:11;;;;;;;2.50;1.70;;;;;;;27.00;19.81;100555.63;1749852;80;20960;-70
2022/05/25 09:59:45;;;;;;;3.17;1.80;;;;;;;26.88;19.99;100558.79;1749709;80;21450;-70
2022/05/25 10:02:35;;;;;;;2.43;1.63;;;;;;;26.80;19.93;100550.23;1747333;80;21074;-69
2022/05/25 10:05:32;;;;;;;3.43;1.60;;;;;;;26.85;20.21;100553.22;1770867;80;21042;-70
2022/05/25 10:08:17;;;;;;;5.50;2.07;;;;;;;26.92;20.56;100547.06;1755057;80;20995;-69
2022/05/25 10:10:55;;;;;;;2.90;1.70;;;;;;;26.94;19.87;100551.61;1763775;80;21022;-68
2022/05/25 10:13:30;;;;;;;3.00;1.80;;;;;;;26.83;20.08;100557.72;1750509;80;21104;-70
2022/05/25 10:15:58;;;;;;;2.90;1.90;;;;;;;26.74;20.27;100545.42;1750198;80;21141;-70
2022/05/25 10:18:42;;;;;;;3.67;1.93;;;;;;;26.77;19.93;100540.00;1747732;80;21085;-69
2022/05/25 10:21:29;;;;;;;2.03;1.60;;;;;;;26.82;19.96;100544.39;1748082;80;21035;-71
2022/05/25 10:23:57;;;;;;;5.40;1.80;;;;;;;26.84;20.05;100539.32;1755435;80;21570;-71
2022/05/25 10:26:36;;;;;;;3.30;1.90;;;;;;;26.97;20.39;100528.36;1752025;80;21135;-71
2022/05/25 10:29:09;;;;;;;3.63;1.70;;;;;;;27.21;20.33;100520.89;1747218;80;21062;-68
2022/05/25 10:37:28;;;;;;;3.00;1.70;;;;;;;27.75;20.61;100525.91;1748104;80;21004;-71
2022/05/25 10:40:01;;;;;;;3.60;1.93;;;;;;;27.85;20.02;100521.73;1750842;80;21099;-70
2022/05/25 10:42:45;;;;;;;3.10;1.63;;;;;;;27.89;19.78;100508.05;1754472;80;21052;-71
2022/05/25 10:45:24;;;;;;;2.43;1.50;;;;;;;28.03;20.33;100510.93;1723942;82;21546;-71
2022/05/25 10:48:14;;;;;;;2.90;1.80;;;;;;;28.17;20.29;100512.47;1697011;83;21040;-70
2022/05/25 10:50:58;;;;;;;4.33;1.60;;;;;;;28.09;19.96;100510.02;1743597;80;21070;-70
2022/05/25 10:54:44;;;;;;;3.80;2.03;;;;;;;28.06;19.38;100496.45;1750179;80;21888;-69
2022/05/25 10:56:31;;;;;;;2.67;1.70;;;;;;;28.00;20.09;100503.45;1748326;80;21038;-70
2022/05/25 10:59:27;;;;;;;2.83;1.80;;;;;;;28.10;20.70;100506.91;1754797;80;21018;-70
2022/05/25 11:02:03;;;;;;;3.40;1.73;;;;;;;28.31;20.90;100502.19;1747775;80;20999;-71
2022/05/25 11:05:12;;;;;;;3.90;1.70;;;;;;;28.49;20.67;100500.39;1742197;80;20956;-71
2022/05/25 11:07:42;;;;;;;3.52;1.67;;;;;;;28.57;20.24;100497.14;1749692;80;21030;-71
2022/05/25 11:10:33;;;;;;;4.20;2.07;;;;;;;28.58;19.97;100497.34;1750038;80;21015;-71
2022/05/25 11:13:51;;;;;;;2.87;1.60;;;;;;;28.61;20.40;100496.58;1749348;80;21944;-70
2022/05/25 11:16:38;;;;;;;3.23;1.70;;;;;;;28.54;19.73;100495.15;1752861;80;21435;-70
2022/05/25 11:19:58;;;;;;;2.40;1.60;;;;;;;28.31;19.88;100494.53;1755835;80;21023;-72
2022/05/25 11:23:17;;;;;;;2.70;1.50;;;;;;;28.07;19.90;100493.94;1750626;80;21134;-70
2022/05/25 11:26:08;;;;;;;3.33;1.60;;;;;;;28.08;19.78;100489.22;1763035;80;21138;-70
2022/05/25 11:28:54;;;;;;;2.90;1.77;;;;;;;28.22;19.63;100490.72;1749823;80;21054;-70
2022/05/25 11:31:32;;;;;;;3.57;1.90;;;;;;;28.32;19.86;100480.41;1765992;80;20999;-70
2022/05/25 11:34:38;;;;;;;5.20;2.53;;;;;;;28.39;20.45;100494.23;1749923;81;20948;-69
2022/05/25 11:37:54;;;;;;;2.87;1.90;;;;;;;28.46;19.91;100493.50;1745387;82;21050;-71
2022/05/25 11:41:02;;;;;;;2.73;1.60;;;;;;;28.61;20.17;100495.20;1772837;80;21538;-70
2022/05/25 11:43:47;;;;;;;2.90;1.43;;;;;;;28.78;19.53;100488.84;1776091;80;20996;-70
2022/05/25 11:46:36;;;;;;;3.23;1.80;;;;;;;28.77;19.66;100491.39;1776145;80;21055;-69
2022/05/25 11:49:29;;;;;;;2.47;1.60;;;;;;;28.66;19.39;100485.23;1763580;80;21049;-70
2022/05/25 11:52:31;;;;;;;2.60;1.80;;;;;;;28.69;19.90;100489.97;1749968;80;21232;-70
2022/05/25 11:55:40;;;;;;;3.93;1.73;;;;;;;28.89;20.24;100475.94;1762904;80;21034;-70
2022/05/25 11:58:19;;;;;;;2.50;1.60;;;;;;;29.14;19.79;100481.63;1716957;83;21165;-69
2022/05/25 12:01:01;;;;;;;3.27;1.70;;;;;;;29.28;19.19;100482.27;1709105;83;21003;-70
2022/05/25 12:04:07;;;;;;;2.92;1.67;;;;;;;29.34;18.83;100486.23;1727655;81;21043;-70
2022/05/25 12:07:04;;;;;;;2.00;1.40;;;;;;;29.17;17.88;100473.38;1749115;80;21563;-70
2022/05/25 12:09:37;;;;;;;4.73;1.87;;;;;;;29.07;18.49;100478.25;1747784;80;21083;-70
2022/05/25 12:12:32;;;;;;;3.30;1.70;;;;;;;29.12;18.66;100475.70;1743389;80;20952;-69
2022/05/25 12:15:21;;;;;;;2.70;1.67;;;;;;;29.18;18.75;100474.16;1750373;80;21046;-70
2022/05/25 12:18:16;;;;;;;3.17;1.90;;;;;;;29.15;19.18;100466.69;1750769;80;21078;-69
2022/05/25 12:20:57;;;;;;;2.57;1.50;;;;;;;29.02;19.30;100463.47;1754291;80;21152;-70
2022/05/25 12:23:32;;;;;;;3.05;1.70;;;;;;;28.94;19.36;100459.09;1701436;82;21015;-71
2022/05/25 12:26:06;;;;;;;4.30;1.80;;;;;;;28.87;18.43;100449.44;1714631;82;21589;-70
2022/05/25 12:28:40;;;;;;;2.63;1.67;;;;;;;28.84;18.22;100456.48;1717943;81;21014;-70
2022/05/25 12:31:11;;;;;;;2.53;1.80;;;;;;;28.93;18.44;100441.81;1695037;83;21582;-70
2022/05/25 12:33:38;;;;;;;3.20;1.70;;;;;;;29.01;18.90;100442.66;1692555;83;21608;-70
2022/05/25 12:36:10;;;;;;;3.10;1.53;;;;;;;29.16;18.44;100442.94;1694167;83;21064;-71
2022/05/25 12:38:39;;;;;;;3.23;1.50;;;;;;;29.26;18.98;100437.88;1693649;83;21039;-71
2022/05/25 12:41:31;;;;;;;2.83;1.60;;;;;;;29.32;18.20;100437.11;1700682;83;21499;-69
2022/05/25 12:48:30;;;;;;;2.37;1.40;;;;;;;29.39;18.13;100434.97;1691741;83;21065;-70